createdAt,value
2022-08-08T00:01:15.232Z,0.90
2022-08-08T00:04:16.372Z,0.82
2022-08-08T00:07:16.690Z,1.10
2022-08-08T00:14:16.734Z,1.20
2022-08-08T00:16:57.086Z,1.08
2022-08-08T00:20:00.239Z,1.00
2022-08-08T00:22:56.273Z,0.93
2022-08-08T00:25:46.129Z,0.85
2022-08-08T00:32:20.713Z,1.10
2022-08-08T00:35:20.133Z,0.80
2022-08-08T00:38:31.155Z,0.90
2022-08-08T00:41:54.827Z,0.80
2022-08-08T00:45:06.054Z,0.80
2022-08-08T00:51:21.668Z,1.00
2022-08-08T00:54:28.633Z,0.98
2022-08-08T00:57:36.239Z,0.90
2022-08-08T01:00:37.411Z,0.90
2022-08-08T01:04:01.885Z,0.90
2022-08-08T01:07:01.776Z,1.00
2022-08-08T01:09:56.560Z,1.00
2022-08-08T01:12:55.607Z,1.00
2022-08-08T01:16:00.675Z,0.80
2022-08-08T01:18:53.377Z,1.00
2022-08-08T01:22:11.999Z,0.90
2022-08-08T01:25:01.652Z,1.00
2022-08-08T01:28:00.263Z,0.80
2022-08-08T01:34:20.128Z,1.00
2022-08-08T01:37:56.312Z,1.10
2022-08-08T01:40:48.989Z,0.90
2022-08-08T01:46:52.344Z,0.93
2022-08-08T01:49:46.263Z,1.10
2022-08-08T01:53:14.643Z,0.80
2022-08-08T01:59:13.493Z,1.08
2022-08-08T02:08:55.989Z,1.00
2022-08-08T02:12:12.749Z,1.30
2022-08-08T02:18:29.788Z,1.20
2022-08-08T02:21:29.920Z,1.15
2022-08-08T02:31:02.058Z,1.00
2022-08-08T02:35:07.863Z,0.90
2022-08-08T02:41:58.780Z,1.00
2022-08-08T02:44:43.096Z,1.10
2022-08-08T02:48:07.460Z,1.25
2022-08-08T02:54:22.398Z,1.10
2022-08-08T02:57:44.333Z,1.40
2022-08-08T03:00:55.947Z,1.17
2022-08-08T03:05:05.456Z,1.15
2022-08-08T03:10:32.477Z,1.35
2022-08-08T03:16:00.542Z,1.30
2022-08-08T03:17:00.243Z,1.10
2022-08-08T03:19:57.241Z,1.35
2022-08-08T03:22:38.779Z,1.20
2022-08-08T03:25:38.315Z,1.05
2022-08-08T03:29:20.615Z,1.20
2022-08-08T03:32:20.251Z,1.10
2022-08-08T03:35:04.996Z,1.33
2022-08-08T03:38:58.040Z,1.05
2022-08-08T03:42:13.060Z,1.27
2022-08-08T03:44:25.575Z,1.60
2022-08-08T03:47:39.522Z,1.30
2022-08-08T03:50:34.536Z,1.40
2022-08-08T03:53:14.070Z,1.30
2022-08-08T04:00:11.134Z,1.20
2022-08-08T04:03:58.342Z,1.23
2022-08-08T04:06:50.544Z,1.77
2022-08-08T04:10:02.969Z,1.52
2022-08-08T04:18:55.413Z,1.30
2022-08-08T04:22:02.206Z,1.63
2022-08-08T04:25:06.424Z,1.30
2022-08-08T04:34:31.840Z,1.42
2022-08-08T04:38:05.820Z,1.60
2022-08-08T04:44:10.994Z,1.77
2022-08-08T04:47:46.206Z,1.30
2022-08-08T04:54:38.607Z,1.40
2022-08-08T04:57:26.068Z,1.70
2022-08-08T05:03:02.501Z,1.67
2022-08-08T05:05:53.534Z,1.50
2022-08-08T05:09:06.034Z,1.67
2022-08-08T05:12:20.965Z,1.30
2022-08-08T05:15:16.638Z,1.70
2022-08-08T05:18:23.733Z,1.52
2022-08-08T05:21:43.637Z,1.38
2022-08-08T05:24:26.890Z,1.45
2022-08-08T05:27:19.453Z,1.20
2022-08-08T05:30:28.252Z,1.85
2022-08-08T05:33:19.001Z,1.60
2022-08-08T05:36:48.806Z,1.20
2022-08-08T05:39:50.556Z,1.40
2022-08-08T05:42:38.725Z,1.20
2022-08-08T05:45:31.461Z,1.40
2022-08-08T05:48:28.840Z,1.30
2022-08-08T05:51:22.194Z,1.33
2022-08-08T05:58:03.948Z,1.35
2022-08-08T06:00:36.450Z,1.30
2022-08-08T06:03:23.704Z,1.60
2022-08-08T06:06:32.390Z,1.65
2022-08-08T06:09:58.255Z,1.27
2022-08-08T06:12:37.956Z,1.10
2022-08-08T06:15:51.021Z,1.17
2022-08-08T06:18:37.737Z,1.13
2022-08-08T06:21:51.630Z,0.98
2022-08-08T06:24:54.687Z,1.23
2022-08-08T06:27:47.591Z,1.45
2022-08-08T06:30:29.004Z,1.13
2022-08-08T06:34:27.534Z,1.30
2022-08-08T06:40:25.781Z,1.52
2022-08-08T06:42:57.865Z,1.48
2022-08-08T06:45:29.325Z,1.00
2022-08-08T06:48:01.003Z,0.98
2022-08-08T06:50:33.888Z,1.40
2022-08-08T06:53:14.025Z,1.15
2022-08-08T06:56:00.414Z,0.85
2022-08-08T06:58:33.719Z,1.10
2022-08-08T07:01:52.422Z,1.10
2022-08-08T07:04:38.777Z,1.20
2022-08-08T07:06:45.539Z,0.90
2022-08-08T07:09:17.914Z,1.38
2022-08-08T07:11:51.957Z,1.15
2022-08-08T07:14:21.196Z,1.20
2022-08-08T07:16:54.258Z,1.13
2022-08-08T07:19:30.798Z,1.30
2022-08-08T07:22:11.914Z,1.30
2022-08-08T07:24:51.908Z,1.25
2022-08-08T07:27:35.237Z,1.20
2022-08-08T07:30:16.674Z,1.23
2022-08-08T07:32:49.365Z,1.02
2022-08-08T07:35:18.633Z,1.00
2022-08-08T07:38:04.414Z,0.98
2022-08-08T07:40:36.175Z,1.20
2022-08-08T07:43:09.404Z,1.40
2022-08-08T07:46:05.339Z,1.10
2022-08-08T07:48:29.880Z,1.30
2022-08-08T07:51:01.281Z,1.00
2022-08-08T07:54:01.357Z,1.10
2022-08-08T07:56:36.738Z,0.90
2022-08-08T07:59:08.757Z,1.20
2022-08-08T08:02:33.020Z,1.00
2022-08-08T08:04:41.126Z,1.08
2022-08-08T08:07:10.949Z,1.10
2022-08-08T08:09:42.301Z,0.80
2022-08-08T08:12:31.611Z,1.13
2022-08-08T08:15:05.020Z,1.15
2022-08-08T08:17:36.382Z,0.93
2022-08-08T08:20:19.518Z,1.03
2022-08-08T08:22:49.041Z,1.00
2022-08-08T08:25:19.312Z,1.10
2022-08-08T08:28:09.508Z,0.90
2022-08-08T08:30:38.929Z,1.10
2022-08-08T08:33:11.128Z,0.90
2022-08-08T08:36:19.042Z,1.02
2022-08-08T08:38:30.594Z,0.90
2022-08-08T08:41:00.148Z,0.90
2022-08-08T08:43:29.376Z,0.88
2022-08-08T08:45:58.080Z,0.90
2022-08-08T08:48:32.339Z,1.10
2022-08-08T08:51:03.174Z,0.70
2022-08-08T08:53:54.406Z,0.90
2022-08-08T08:56:24.237Z,1.65
2022-08-08T08:58:53.394Z,0.80
2022-08-08T09:01:24.854Z,0.80
2022-08-08T09:03:53.387Z,0.90
2022-08-08T09:06:28.817Z,1.13
2022-08-08T09:09:05.121Z,0.90
2022-08-08T09:14:16.822Z,0.77
2022-08-08T09:16:47.760Z,0.80
2022-08-08T09:19:33.943Z,0.80
2022-08-08T09:22:11.537Z,0.73
2022-08-08T09:24:42.842Z,0.88
2022-08-08T09:27:20.329Z,0.80
2022-08-08T09:29:53.119Z,0.82
2022-08-08T09:32:35.924Z,0.73
2022-08-08T09:35:08.364Z,1.08
2022-08-08T09:38:00.772Z,0.70
2022-08-08T09:40:45.550Z,1.00
2022-08-08T09:43:24.060Z,0.95
2022-08-08T09:46:11.063Z,0.88
2022-08-08T09:48:50.140Z,0.88
2022-08-08T09:51:25.794Z,0.90
2022-08-08T09:54:05.141Z,0.73
2022-08-08T09:56:41.402Z,0.80
2022-08-08T09:59:53.318Z,1.30
2022-08-08T10:02:12.717Z,0.73
2022-08-08T10:04:47.801Z,0.75
2022-08-08T10:07:17.550Z,1.10
2022-08-08T10:10:00.932Z,0.80
2022-08-08T10:12:38.392Z,0.88
2022-08-08T10:15:21.789Z,0.80
2022-08-08T10:18:05.958Z,0.85
2022-08-08T10:20:50.966Z,0.90
2022-08-08T10:23:41.856Z,0.75
2022-08-08T10:26:29.670Z,0.60
2022-08-08T10:29:03.586Z,0.75
2022-08-08T10:34:21.312Z,0.73
2022-08-08T10:36:50.071Z,1.00
2022-08-08T10:39:19.798Z,1.05
2022-08-08T10:42:16.264Z,1.00
2022-08-08T10:44:49.224Z,0.80
2022-08-08T10:47:20.614Z,0.90
2022-08-08T10:50:01.491Z,0.80
2022-08-08T10:52:31.942Z,0.90
2022-08-08T10:55:05.143Z,0.77
2022-08-08T10:57:45.238Z,0.80
2022-08-08T11:00:22.564Z,0.90
2022-08-08T11:02:54.092Z,0.80
2022-08-08T11:05:23.428Z,0.80
2022-08-08T11:08:37.054Z,0.60
2022-08-08T11:10:41.414Z,0.80
2022-08-08T11:13:29.967Z,0.70
2022-08-08T11:16:00.766Z,0.70
2022-08-08T11:18:30.328Z,1.05
2022-08-08T11:20:59.084Z,0.93
2022-08-08T11:23:32.894Z,0.82
2022-08-08T11:26:01.434Z,0.80
2022-08-08T11:28:33.252Z,0.60
2022-08-08T11:31:08.745Z,1.10
2022-08-08T11:33:52.743Z,0.70
2022-08-08T11:36:29.403Z,0.55
2022-08-08T11:38:58.248Z,1.20
2022-08-08T11:41:28.219Z,0.93
2022-08-08T11:44:03.212Z,0.80
2022-08-08T11:46:35.177Z,0.63
2022-08-08T11:49:06.009Z,1.00
2022-08-08T11:51:40.073Z,0.90
2022-08-08T11:54:32.502Z,0.70
2022-08-08T11:57:14.455Z,0.70
2022-08-08T12:00:01.793Z,0.80
2022-08-08T12:02:34.333Z,0.70
2022-08-08T12:05:04.007Z,0.80
2022-08-08T12:07:32.325Z,0.75
2022-08-08T12:10:11.759Z,0.75
2022-08-08T12:12:45.999Z,0.57
2022-08-08T12:15:28.723Z,0.90
2022-08-08T12:17:58.227Z,0.90
2022-08-08T12:20:38.581Z,0.80
2022-08-08T12:23:07.152Z,0.80
2022-08-08T12:25:56.529Z,0.70
2022-08-08T12:28:25.281Z,0.70
2022-08-08T12:30:55.526Z,0.80
2022-08-08T12:33:37.160Z,0.80
2022-08-08T12:36:12.056Z,0.85
2022-08-08T12:38:49.258Z,0.63
2022-08-08T12:41:35.230Z,0.77
2022-08-08T12:44:09.117Z,0.80
2022-08-08T12:46:38.865Z,0.73
2022-08-08T12:49:29.507Z,0.80
2022-08-08T12:52:00.057Z,0.60
2022-08-08T12:54:29.919Z,0.88
2022-08-08T12:57:02.223Z,0.77
2022-08-08T12:59:45.243Z,0.80
2022-08-08T13:02:28.333Z,0.88
2022-08-08T13:04:58.269Z,0.85
2022-08-08T13:08:04.100Z,0.60
2022-08-08T13:10:32.753Z,0.70
2022-08-08T13:13:06.172Z,0.70
2022-08-08T13:15:37.695Z,0.70
2022-08-08T13:18:11.840Z,0.77
2022-08-08T13:20:48.835Z,0.90
2022-08-08T13:23:36.752Z,0.65
2022-08-08T13:26:15.699Z,0.65
2022-08-08T13:28:45.839Z,0.80
2022-08-08T13:31:17.432Z,0.80
2022-08-08T13:33:49.980Z,0.80
2022-08-08T13:36:25.774Z,0.70
2022-08-08T13:38:54.964Z,0.60
2022-08-08T13:41:37.612Z,0.57
2022-08-08T13:44:11.039Z,0.75
2022-08-08T13:46:39.802Z,0.50
2022-08-08T13:50:35.129Z,0.60
2022-08-08T13:52:08.193Z,0.60
2022-08-08T13:54:44.322Z,1.05
2022-08-08T13:57:18.320Z,0.70
2022-08-08T14:00:08.981Z,0.70
2022-08-08T14:02:41.183Z,0.65
2022-08-08T14:05:21.865Z,0.52
2022-08-08T14:07:52.542Z,0.70
2022-08-08T14:10:33.066Z,0.60
2022-08-08T14:13:31.296Z,0.65
2022-08-08T14:16:03.188Z,0.68
2022-08-08T14:18:35.865Z,0.75
2022-08-08T14:21:22.473Z,0.52
2022-08-08T14:24:04.603Z,0.90
2022-08-08T14:26:41.679Z,0.80
2022-08-08T14:29:30.036Z,0.60
2022-08-08T14:32:12.550Z,0.80
2022-08-08T14:34:45.409Z,0.70
2022-08-08T14:37:18.339Z,0.50
2022-08-08T14:42:17.236Z,0.60
2022-08-08T14:44:55.029Z,0.73
2022-08-08T14:47:26.047Z,0.57
2022-08-08T14:50:14.114Z,0.60
2022-08-08T14:52:49.134Z,0.60
2022-08-08T14:55:22.413Z,0.60
2022-08-08T14:58:11.283Z,0.60
2022-08-08T15:00:44.935Z,0.60
2022-08-08T15:03:14.837Z,0.60
2022-08-08T15:05:53.655Z,0.60
2022-08-08T15:08:35.664Z,0.63
2022-08-08T15:11:07.296Z,0.80
2022-08-08T15:13:40.899Z,0.50
2022-08-08T15:16:26.570Z,0.70
2022-08-08T15:18:56.487Z,0.90
2022-08-08T15:21:27.556Z,0.57
2022-08-08T15:23:59.894Z,0.60
2022-08-08T15:26:29.354Z,0.55
2022-08-08T15:28:58.389Z,0.70
2022-08-08T15:32:18.131Z,0.68
2022-08-08T15:34:29.016Z,0.60
2022-08-08T15:36:59.597Z,0.73
2022-08-08T15:39:37.436Z,0.60
2022-08-08T15:42:13.464Z,0.63
2022-08-08T15:44:56.337Z,0.60
2022-08-08T15:47:24.753Z,0.63
2022-08-08T15:49:54.064Z,0.80
2022-08-08T15:52:24.977Z,0.57
2022-08-08T15:54:56.502Z,0.82
2022-08-08T15:57:24.815Z,0.65
2022-08-08T16:00:05.341Z,0.80
2022-08-08T16:02:44.158Z,0.70
2022-08-08T16:05:19.166Z,0.70
2022-08-08T16:07:52.857Z,1.00
2022-08-08T16:13:28.723Z,0.88
2022-08-08T16:13:30.874Z,0.68
2022-08-08T16:16:16.539Z,0.68
2022-08-08T16:18:56.162Z,0.70
2022-08-08T16:21:27.626Z,0.60
2022-08-08T16:23:56.561Z,0.80
2022-08-08T16:26:34.147Z,0.90
2022-08-08T16:29:08.182Z,0.88
2022-08-08T16:31:40.162Z,0.75
2022-08-08T16:34:08.852Z,0.70
2022-08-08T16:36:37.533Z,0.70
2022-08-08T16:39:09.956Z,0.75
2022-08-08T16:42:00.966Z,0.80
2022-08-08T16:44:34.296Z,0.80
2022-08-08T16:47:21.671Z,0.80
2022-08-08T16:49:52.820Z,0.98
2022-08-08T16:55:02.595Z,0.80
2022-08-08T16:55:33.888Z,0.80
2022-08-08T16:58:15.323Z,0.80
2022-08-08T17:00:49.003Z,0.70
2022-08-08T17:03:24.811Z,0.80
2022-08-08T17:06:37.251Z,0.90
2022-08-08T17:08:58.719Z,1.00
2022-08-08T17:11:27.990Z,1.00
2022-08-08T17:14:11.638Z,0.80
2022-08-08T17:16:57.204Z,1.05
2022-08-08T17:19:27.028Z,0.90
2022-08-08T17:21:55.506Z,1.02
2022-08-08T17:24:28.049Z,0.90
2022-08-08T17:26:59.169Z,0.80
2022-08-08T17:29:34.130Z,1.00
2022-08-08T17:32:05.936Z,0.98
2022-08-08T17:34:59.945Z,0.88
2022-08-08T17:37:27.580Z,0.90
2022-08-08T17:40:05.910Z,0.88
2022-08-08T17:42:40.992Z,1.00
2022-08-08T17:45:23.396Z,1.15
2022-08-08T17:47:52.177Z,0.95
2022-08-08T17:50:22.768Z,1.00
2022-08-08T17:52:51.132Z,0.90
2022-08-08T17:56:04.204Z,1.02
2022-08-08T17:58:07.732Z,1.10
2022-08-08T18:00:39.087Z,0.75
2022-08-08T18:03:13.528Z,1.08
2022-08-08T18:05:48.917Z,0.90
2022-08-08T18:08:24.950Z,0.73
2022-08-08T18:11:09.031Z,1.30
2022-08-08T18:13:41.708Z,0.90
2022-08-08T18:18:45.381Z,1.30
2022-08-08T18:21:35.317Z,1.23
2022-08-08T18:24:18.754Z,1.20
2022-08-08T18:26:54.707Z,0.98
2022-08-08T18:29:29.727Z,1.00
2022-08-08T18:32:03.289Z,1.20
2022-08-08T18:34:33.860Z,1.20
2022-08-08T18:37:08.182Z,1.38
2022-08-08T18:39:38.102Z,1.10
2022-08-08T18:42:13.977Z,1.55
2022-08-08T18:44:55.939Z,1.35
2022-08-08T18:47:26.112Z,1.20
2022-08-08T18:49:58.764Z,1.27
2022-08-08T18:52:30.123Z,0.95
2022-08-08T18:55:09.329Z,1.50
2022-08-08T18:57:43.442Z,1.13
2022-08-08T19:00:16.853Z,1.10
2022-08-08T19:02:56.544Z,2.22
2022-08-08T19:05:32.240Z,2.03
2022-08-08T19:08:10.106Z,1.50
2022-08-08T19:10:52.187Z,1.70
2022-08-08T19:13:24.293Z,1.35
2022-08-08T19:15:55.866Z,1.40
2022-08-08T19:18:33.362Z,1.42
2022-08-08T19:21:28.049Z,1.25
2022-08-08T19:23:59.456Z,1.10
2022-08-08T19:26:30.036Z,1.10
2022-08-08T19:28:59.432Z,1.27
2022-08-08T19:31:31.544Z,1.90
2022-08-08T19:34:35.575Z,1.20
2022-08-08T19:36:55.422Z,1.50
2022-08-08T19:39:34.952Z,1.52
2022-08-08T19:42:03.970Z,1.42
2022-08-08T19:44:45.719Z,1.38
2022-08-08T19:47:15.604Z,1.48
2022-08-08T19:49:59.654Z,1.50
2022-08-08T19:52:35.203Z,1.45
2022-08-08T19:55:06.035Z,2.10
2022-08-08T19:57:35.599Z,2.03
2022-08-08T20:00:11.351Z,3.95
2022-08-08T20:02:55.231Z,2.60
2022-08-08T20:06:14.931Z,1.85
2022-08-08T20:08:28.023Z,1.80
2022-08-08T20:11:01.652Z,1.60
2022-08-08T20:14:34.927Z,1.65
2022-08-08T20:16:29.319Z,1.48
2022-08-08T20:18:59.852Z,1.73
2022-08-08T20:21:37.132Z,1.33
2022-08-08T20:24:08.801Z,1.38
2022-08-08T20:26:41.617Z,1.50
2022-08-08T20:29:16.074Z,1.50
2022-08-08T20:32:07.661Z,1.60
2022-08-08T20:34:32.788Z,1.60
2022-08-08T20:37:04.228Z,1.40
2022-08-08T20:39:41.809Z,1.75
2022-08-08T20:42:28.541Z,1.90
2022-08-08T20:44:58.119Z,1.65
2022-08-08T20:47:26.416Z,1.63
2022-08-08T20:49:58.082Z,1.52
2022-08-08T20:52:27.885Z,1.30
2022-08-08T20:55:00.172Z,1.40
2022-08-08T20:57:28.822Z,1.60
2022-08-08T20:59:57.740Z,1.50
2022-08-08T21:02:28.006Z,1.45
2022-08-08T21:05:01.048Z,1.65
2022-08-08T21:07:47.541Z,1.50
2022-08-08T21:10:20.774Z,1.50
2022-08-08T21:12:53.034Z,1.80
2022-08-08T21:16:06.320Z,1.60
2022-08-08T21:18:11.766Z,1.40
2022-08-08T21:20:42.047Z,1.40
2022-08-08T21:23:13.342Z,1.88
2022-08-08T21:25:53.247Z,2.10
2022-08-08T21:28:35.454Z,1.70
2022-08-08T21:31:21.740Z,1.50
2022-08-08T21:33:50.786Z,1.73
2022-08-08T21:36:20.990Z,1.73
2022-08-08T21:38:57.564Z,1.70
2022-08-08T21:41:38.694Z,1.70
2022-08-08T21:44:11.876Z,1.90
2022-08-08T21:48:05.599Z,1.48
2022-08-08T21:49:30.954Z,1.60
2022-08-08T21:54:33.577Z,1.90
2022-08-08T21:55:01.706Z,1.75
2022-08-08T21:57:42.516Z,1.30
2022-08-08T22:00:26.028Z,1.70
2022-08-08T22:02:55.015Z,1.95
2022-08-08T22:05:23.509Z,1.67
2022-08-08T22:07:52.118Z,1.83
2022-08-08T22:10:32.042Z,1.40
2022-08-08T22:13:18.838Z,1.30
2022-08-08T22:15:58.905Z,1.50
2022-08-08T22:18:30.267Z,1.60
2022-08-08T22:21:08.296Z,1.73
2022-08-08T22:23:41.087Z,2.10
2022-08-08T22:26:29.902Z,1.60
2022-08-08T22:29:04.611Z,1.42
2022-08-08T22:31:43.859Z,1.80
2022-08-08T22:34:27.617Z,1.98
2022-08-08T22:36:56.073Z,1.60
2022-08-08T22:39:39.192Z,1.83
2022-08-08T22:42:10.238Z,1.90
2022-08-08T22:44:53.390Z,1.80
2022-08-08T22:47:22.079Z,1.40
2022-08-08T22:49:54.199Z,1.70
2022-08-08T22:52:33.786Z,1.42
2022-08-08T22:55:05.772Z,1.83
2022-08-08T22:57:44.418Z,1.85
2022-08-08T23:00:20.478Z,1.73
2022-08-08T23:02:50.207Z,1.70
2022-08-08T23:05:21.427Z,1.63
2022-08-08T23:07:57.239Z,1.80
2022-08-08T23:10:27.827Z,1.55
2022-08-08T23:12:56.877Z,2.00
2022-08-08T23:16:40.784Z,1.90
2022-08-08T23:18:15.694Z,1.88
2022-08-08T23:20:54.931Z,1.90
2022-08-08T23:23:23.830Z,1.80
2022-08-08T23:25:52.845Z,1.95
2022-08-08T23:28:24.982Z,1.58
2022-08-08T23:30:54.947Z,1.63
2022-08-08T23:34:15.325Z,2.05
2022-08-08T23:36:12.333Z,1.50
2022-08-08T23:38:43.952Z,1.98
2022-08-08T23:41:22.903Z,1.58
2022-08-08T23:43:56.468Z,1.85
2022-08-08T23:49:03.738Z,1.95
2022-08-08T23:49:31.013Z,4.72
2022-08-08T23:52:05.300Z,2.60
2022-08-08T23:55:07.317Z,2.13
2022-08-08T23:57:51.944Z,1.98
